sensor_id;sensor_type;location;lat;lon;timestamp;P1;durP1;ratioP1;P2;durP2;ratioP2
69847;SDS011;57143;55.940;37.496;2022-12-07T00:01:50;9.15;;;0.98;;
69847;SDS011;57143;55.940;37.496;2022-12-07T00:04:17;7.47;;;0.85;;
69847;SDS011;57143;55.940;37.496;2022-12-07T00:06:45;4.07;;;0.68;;
69847;SDS011;57143;55.940;37.496;2022-12-07T00:09:17;4.07;;;0.90;;
69847;SDS011;57143;55.940;37.496;2022-12-07T00:11:44;5.38;;;1.02;;
69847;SDS011;57143;55.940;37.496;2022-12-07T00:14:17;5.68;;;0.85;;
69847;SDS011;57143;55.940;37.496;2022-12-07T00:16:48;6.53;;;0.98;;
69847;SDS011;57143;55.940;37.496;2022-12-07T00:19:16;5.80;;;0.85;;
69847;SDS011;57143;55.940;37.496;2022-12-07T00:21:43;5.20;;;1.47;;
69847;SDS011;57143;55.940;37.496;2022-12-07T00:24:10;3.30;;;0.68;;
69847;SDS011;57143;55.940;37.496;2022-12-07T00:26:39;3.40;;;0.73;;
69847;SDS011;57143;55.940;37.496;2022-12-07T00:29:09;4.47;;;0.60;;
69847;SDS011;57143;55.940;37.496;2022-12-07T00:31:42;5.22;;;0.93;;
69847;SDS011;57143;55.940;37.496;2022-12-07T00:34:11;5.10;;;1.47;;
69847;SDS011;57143;55.940;37.496;2022-12-07T00:36:40;8.23;;;0.63;;
69847;SDS011;57143;55.940;37.496;2022-12-07T00:39:07;4.65;;;0.88;;
69847;SDS011;57143;55.940;37.496;2022-12-07T00:41:35;5.00;;;1.17;;
69847;SDS011;57143;55.940;37.496;2022-12-07T00:44:02;4.18;;;0.70;;
69847;SDS011;57143;55.940;37.496;2022-12-07T00:46:29;2.67;;;0.67;;
69847;SDS011;57143;55.940;37.496;2022-12-07T00:48:58;5.57;;;1.48;;
69847;SDS011;57143;55.940;37.496;2022-12-07T00:51:25;5.90;;;1.00;;
69847;SDS011;57143;55.940;37.496;2022-12-07T00:53:53;4.60;;;0.98;;
69847;SDS011;57143;55.940;37.496;2022-12-07T00:56:21;4.13;;;0.98;;
69847;SDS011;57143;55.940;37.496;2022-12-07T00:58:50;4.10;;;0.90;;
69847;SDS011;57143;55.940;37.496;2022-12-07T01:01:18;3.47;;;0.63;;
69847;SDS011;57143;55.940;37.496;2022-12-07T01:03:45;10.45;;;2.78;;
69847;SDS011;57143;55.940;37.496;2022-12-07T01:06:15;3.50;;;0.82;;
69847;SDS011;57143;55.940;37.496;2022-12-07T01:08:43;6.40;;;1.85;;
69847;SDS011;57143;55.940;37.496;2022-12-07T01:11:12;4.97;;;0.97;;
69847;SDS011;57143;55.940;37.496;2022-12-07T01:13:41;5.72;;;1.10;;
69847;SDS011;57143;55.940;37.496;2022-12-07T01:16:10;2.78;;;0.50;;
69847;SDS011;57143;55.940;37.496;2022-12-07T01:18:39;5.22;;;0.95;;
69847;SDS011;57143;55.940;37.496;2022-12-07T01:21:07;4.35;;;0.82;;
69847;SDS011;57143;55.940;37.496;2022-12-07T01:23:39;5.80;;;1.07;;
69847;SDS011;57143;55.940;37.496;2022-12-07T01:26:07;5.80;;;1.38;;
69847;SDS011;57143;55.940;37.496;2022-12-07T01:28:36;3.63;;;0.80;;
69847;SDS011;57143;55.940;37.496;2022-12-07T01:31:04;6.00;;;0.82;;
69847;SDS011;57143;55.940;37.496;2022-12-07T01:33:34;4.95;;;1.40;;
69847;SDS011;57143;55.940;37.496;2022-12-07T01:36:03;9.20;;;1.20;;
69847;SDS011;57143;55.940;37.496;2022-12-07T01:38:30;3.72;;;1.00;;
69847;SDS011;57143;55.940;37.496;2022-12-07T01:41:02;5.43;;;0.93;;
69847;SDS011;57143;55.940;37.496;2022-12-07T01:43:30;12.65;;;1.08;;
69847;SDS011;57143;55.940;37.496;2022-12-07T01:46:00;5.13;;;0.88;;
69847;SDS011;57143;55.940;37.496;2022-12-07T01:48:28;4.43;;;0.70;;
69847;SDS011;57143;55.940;37.496;2022-12-07T01:51:00;5.03;;;1.13;;
69847;SDS011;57143;55.940;37.496;2022-12-07T01:53:31;3.90;;;0.80;;
69847;SDS011;57143;55.940;37.496;2022-12-07T01:56:03;5.55;;;1.08;;
69847;SDS011;57143;55.940;37.496;2022-12-07T01:58:32;7.30;;;0.90;;
69847;SDS011;57143;55.940;37.496;2022-12-07T02:00:59;5.77;;;1.07;;
69847;SDS011;57143;55.940;37.496;2022-12-07T02:03:27;4.35;;;0.95;;
69847;SDS011;57143;55.940;37.496;2022-12-07T02:05:58;4.90;;;1.00;;
69847;SDS011;57143;55.940;37.496;2022-12-07T02:08:26;4.55;;;0.98;;
69847;SDS011;57143;55.940;37.496;2022-12-07T02:10:54;6.55;;;1.10;;
69847;SDS011;57143;55.940;37.496;2022-12-07T02:13:23;12.33;;;1.20;;
69847;SDS011;57143;55.940;37.496;2022-12-07T02:18:45;7.53;;;1.23;;
69847;SDS011;57143;55.940;37.496;2022-12-07T02:21:27;4.35;;;1.00;;
69847;SDS011;57143;55.940;37.496;2022-12-07T02:30:10;6.07;;;0.93;;
69847;SDS011;57143;55.940;37.496;2022-12-07T02:32:41;5.43;;;1.17;;
69847;SDS011;57143;55.940;37.496;2022-12-07T02:35:15;5.00;;;0.93;;
69847;SDS011;57143;55.940;37.496;2022-12-07T02:37:49;4.28;;;0.95;;
69847;SDS011;57143;55.940;37.496;2022-12-07T02:40:25;8.77;;;3.37;;
69847;SDS011;57143;55.940;37.496;2022-12-07T02:42:57;5.38;;;0.93;;
69847;SDS011;57143;55.940;37.496;2022-12-07T02:45:31;3.75;;;0.45;;
69847;SDS011;57143;55.940;37.496;2022-12-07T02:48:01;4.38;;;0.90;;
69847;SDS011;57143;55.940;37.496;2022-12-07T02:50:30;6.80;;;1.23;;
69847;SDS011;57143;55.940;37.496;2022-12-07T02:52:57;5.13;;;0.87;;
69847;SDS011;57143;55.940;37.496;2022-12-07T02:55:25;9.73;;;1.70;;
69847;SDS011;57143;55.940;37.496;2022-12-07T02:58:05;6.80;;;0.95;;
69847;SDS011;57143;55.940;37.496;2022-12-07T03:00:44;5.22;;;1.00;;
69847;SDS011;57143;55.940;37.496;2022-12-07T03:03:21;4.70;;;0.70;;
69847;SDS011;57143;55.940;37.496;2022-12-07T03:06:02;5.33;;;1.67;;
69847;SDS011;57143;55.940;37.496;2022-12-07T03:08:38;2.40;;;0.30;;
69847;SDS011;57143;55.940;37.496;2022-12-07T03:11:13;3.72;;;0.70;;
69847;SDS011;57143;55.940;37.496;2022-12-07T03:13:45;4.40;;;0.90;;
69847;SDS011;57143;55.940;37.496;2022-12-07T03:16:19;3.97;;;0.70;;
69847;SDS011;57143;55.940;37.496;2022-12-07T03:18:50;5.40;;;1.00;;
69847;SDS011;57143;55.940;37.496;2022-12-07T03:21:22;4.35;;;1.00;;
69847;SDS011;57143;55.940;37.496;2022-12-07T03:23:54;4.63;;;0.60;;
69847;SDS011;57143;55.940;37.496;2022-12-07T03:26:28;5.80;;;0.88;;
69847;SDS011;57143;55.940;37.496;2022-12-07T03:29:01;6.38;;;1.52;;
69847;SDS011;57143;55.940;37.496;2022-12-07T03:31:36;4.40;;;0.93;;
69847;SDS011;57143;55.940;37.496;2022-12-07T03:34:08;3.50;;;0.73;;
69847;SDS011;57143;55.940;37.496;2022-12-07T03:36:40;11.05;;;1.45;;
69847;SDS011;57143;55.940;37.496;2022-12-07T03:39:14;8.43;;;1.23;;
69847;SDS011;57143;55.940;37.496;2022-12-07T03:41:47;8.27;;;1.00;;
69847;SDS011;57143;55.940;37.496;2022-12-07T03:44:15;7.00;;;1.07;;
69847;SDS011;57143;55.940;37.496;2022-12-07T03:46:49;6.03;;;1.52;;
69847;SDS011;57143;55.940;37.496;2022-12-07T03:49:25;18.17;;;3.33;;
69847;SDS011;57143;55.940;37.496;2022-12-07T03:51:57;13.45;;;2.58;;
69847;SDS011;57143;55.940;37.496;2022-12-07T03:54:32;15.20;;;2.42;;
69847;SDS011;57143;55.940;37.496;2022-12-07T03:57:04;8.93;;;2.47;;
69847;SDS011;57143;55.940;37.496;2022-12-07T03:59:33;6.70;;;2.03;;
69847;SDS011;57143;55.940;37.496;2022-12-07T04:02:03;8.50;;;1.85;;
69847;SDS011;57143;55.940;37.496;2022-12-07T04:04:32;3.13;;;0.68;;
69847;SDS011;57143;55.940;37.496;2022-12-07T04:07:00;4.70;;;1.17;;
69847;SDS011;57143;55.940;37.496;2022-12-07T04:09:28;4.80;;;1.17;;
69847;SDS011;57143;55.940;37.496;2022-12-07T04:11:55;4.30;;;0.95;;
69847;SDS011;57143;55.940;37.496;2022-12-07T04:14:22;7.03;;;1.63;;
69847;SDS011;57143;55.940;37.496;2022-12-07T04:16:50;8.85;;;2.45;;
69847;SDS011;57143;55.940;37.496;2022-12-07T04:19:20;8.82;;;1.77;;
69847;SDS011;57143;55.940;37.496;2022-12-07T04:21:49;6.53;;;1.57;;
69847;SDS011;57143;55.940;37.496;2022-12-07T04:24:16;6.75;;;1.60;;
69847;SDS011;57143;55.940;37.496;2022-12-07T04:26:44;5.97;;;0.70;;
69847;SDS011;57143;55.940;37.496;2022-12-07T04:29:11;5.65;;;1.48;;
69847;SDS011;57143;55.940;37.496;2022-12-07T04:31:39;5.38;;;1.25;;
69847;SDS011;57143;55.940;37.496;2022-12-07T04:34:06;4.27;;;1.03;;
69847;SDS011;57143;55.940;37.496;2022-12-07T04:36:36;5.55;;;1.40;;
69847;SDS011;57143;55.940;37.496;2022-12-07T04:39:06;4.93;;;0.90;;
69847;SDS011;57143;55.940;37.496;2022-12-07T04:41:44;4.97;;;1.15;;
69847;SDS011;57143;55.940;37.496;2022-12-07T04:44:14;10.27;;;2.10;;
69847;SDS011;57143;55.940;37.496;2022-12-07T04:46:42;6.53;;;1.30;;
69847;SDS011;57143;55.940;37.496;2022-12-07T04:49:10;7.70;;;1.77;;
69847;SDS011;57143;55.940;37.496;2022-12-07T04:51:40;7.95;;;1.88;;
69847;SDS011;57143;55.940;37.496;2022-12-07T04:54:10;6.82;;;1.63;;
69847;SDS011;57143;55.940;37.496;2022-12-07T04:56:38;6.85;;;1.27;;
69847;SDS011;57143;55.940;37.496;2022-12-07T04:59:05;4.57;;;0.83;;
69847;SDS011;57143;55.940;37.496;2022-12-07T05:01:32;7.32;;;1.65;;
69847;SDS011;57143;55.940;37.496;2022-12-07T05:04:00;4.43;;;1.23;;
69847;SDS011;57143;55.940;37.496;2022-12-07T05:06:27;6.57;;;1.45;;
69847;SDS011;57143;55.940;37.496;2022-12-07T05:08:56;4.93;;;1.02;;
69847;SDS011;57143;55.940;37.496;2022-12-07T05:11:23;7.63;;;1.83;;
69847;SDS011;57143;55.940;37.496;2022-12-07T05:14:11;7.88;;;2.08;;
69847;SDS011;57143;55.940;37.496;2022-12-07T05:16:39;6.60;;;1.33;;
69847;SDS011;57143;55.940;37.496;2022-12-07T05:19:07;5.80;;;1.38;;
69847;SDS011;57143;55.940;37.496;2022-12-07T05:21:35;6.82;;;1.20;;
69847;SDS011;57143;55.940;37.496;2022-12-07T05:24:05;5.50;;;1.80;;
69847;SDS011;57143;55.940;37.496;2022-12-07T05:26:33;4.30;;;1.00;;
69847;SDS011;57143;55.940;37.496;2022-12-07T05:29:00;7.50;;;1.77;;
69847;SDS011;57143;55.940;37.496;2022-12-07T05:31:28;6.97;;;1.95;;
69847;SDS011;57143;55.940;37.496;2022-12-07T05:33:55;7.32;;;2.72;;
69847;SDS011;57143;55.940;37.496;2022-12-07T05:36:22;8.60;;;2.13;;
69847;SDS011;57143;55.940;37.496;2022-12-07T05:38:49;9.43;;;1.60;;
69847;SDS011;57143;55.940;37.496;2022-12-07T05:41:18;4.97;;;1.40;;
69847;SDS011;57143;55.940;37.496;2022-12-07T05:44:03;7.15;;;1.15;;
69847;SDS011;57143;55.940;37.496;2022-12-07T05:46:31;5.13;;;1.38;;
69847;SDS011;57143;55.940;37.496;2022-12-07T05:48:59;7.87;;;2.70;;
69847;SDS011;57143;55.940;37.496;2022-12-07T05:51:26;11.40;;;1.60;;
69847;SDS011;57143;55.940;37.496;2022-12-07T05:53:53;9.05;;;2.35;;
69847;SDS011;57143;55.940;37.496;2022-12-07T05:56:22;8.63;;;2.45;;
69847;SDS011;57143;55.940;37.496;2022-12-07T05:58:49;8.00;;;2.72;;
69847;SDS011;57143;55.940;37.496;2022-12-07T06:01:33;7.53;;;2.00;;
69847;SDS011;57143;55.940;37.496;2022-12-07T06:04:01;5.32;;;1.55;;
69847;SDS011;57143;55.940;37.496;2022-12-07T06:06:28;5.50;;;1.73;;
69847;SDS011;57143;55.940;37.496;2022-12-07T06:08:55;8.85;;;2.08;;
69847;SDS011;57143;55.940;37.496;2022-12-07T06:11:24;9.10;;;1.60;;
69847;SDS011;57143;55.940;37.496;2022-12-07T06:14:08;8.17;;;2.40;;
69847;SDS011;57143;55.940;37.496;2022-12-07T06:16:35;8.68;;;1.67;;
69847;SDS011;57143;55.940;37.496;2022-12-07T06:19:02;3.47;;;0.93;;
69847;SDS011;57143;55.940;37.496;2022-12-07T06:21:30;22.35;;;2.35;;
69847;SDS011;57143;55.940;37.496;2022-12-07T06:23:57;9.27;;;2.22;;
69847;SDS011;57143;55.940;37.496;2022-12-07T06:26:26;12.87;;;3.40;;
69847;SDS011;57143;55.940;37.496;2022-12-07T06:28:53;14.45;;;2.38;;
69847;SDS011;57143;55.940;37.496;2022-12-07T06:31:21;12.82;;;1.73;;
69847;SDS011;57143;55.940;37.496;2022-12-07T06:33:49;7.63;;;1.08;;
69847;SDS011;57143;55.940;37.496;2022-12-07T06:36:16;4.25;;;1.33;;
69847;SDS011;57143;55.940;37.496;2022-12-07T06:38:43;10.60;;;2.57;;
69847;SDS011;57143;55.940;37.496;2022-12-07T06:41:10;9.30;;;1.83;;
69847;SDS011;57143;55.940;37.496;2022-12-07T06:43:39;4.63;;;1.30;;
69847;SDS011;57143;55.940;37.496;2022-12-07T06:46:07;8.48;;;2.30;;
69847;SDS011;57143;55.940;37.496;2022-12-07T06:48:34;10.02;;;2.78;;
69847;SDS011;57143;55.940;37.496;2022-12-07T06:51:01;11.33;;;3.53;;
69847;SDS011;57143;55.940;37.496;2022-12-07T06:53:29;9.07;;;1.98;;
69847;SDS011;57143;55.940;37.496;2022-12-07T06:55:56;5.13;;;1.35;;
69847;SDS011;57143;55.940;37.496;2022-12-07T06:58:23;6.80;;;1.73;;
69847;SDS011;57143;55.940;37.496;2022-12-07T07:00:52;11.15;;;3.08;;
69847;SDS011;57143;55.940;37.496;2022-12-07T07:03:19;8.90;;;1.83;;
69847;SDS011;57143;55.940;37.496;2022-12-07T07:05:46;6.72;;;1.75;;
69847;SDS011;57143;55.940;37.496;2022-12-07T07:08:14;5.90;;;1.63;;
69847;SDS011;57143;55.940;37.496;2022-12-07T07:10:41;7.88;;;2.05;;
69847;SDS011;57143;55.940;37.496;2022-12-07T07:13:08;8.48;;;1.45;;
69847;SDS011;57143;55.940;37.496;2022-12-07T07:15:37;9.67;;;2.30;;
69847;SDS011;57143;55.940;37.496;2022-12-07T07:18:06;8.43;;;2.45;;
69847;SDS011;57143;55.940;37.496;2022-12-07T07:20:33;8.15;;;2.08;;
69847;SDS011;57143;55.940;37.496;2022-12-07T07:23:01;7.63;;;2.33;;
69847;SDS011;57143;55.940;37.496;2022-12-07T07:25:28;10.60;;;3.00;;
69847;SDS011;57143;55.940;37.496;2022-12-07T07:27:55;8.33;;;2.13;;
69847;SDS011;57143;55.940;37.496;2022-12-07T07:30:22;10.07;;;3.35;;
69847;SDS011;57143;55.940;37.496;2022-12-07T07:32:49;6.25;;;2.15;;
69847;SDS011;57143;55.940;37.496;2022-12-07T07:35:18;9.98;;;2.78;;
69847;SDS011;57143;55.940;37.496;2022-12-07T07:37:45;8.02;;;2.60;;
69847;SDS011;57143;55.940;37.496;2022-12-07T07:40:12;8.87;;;3.43;;
69847;SDS011;57143;55.940;37.496;2022-12-07T07:42:39;13.48;;;3.00;;
69847;SDS011;57143;55.940;37.496;2022-12-07T07:45:07;7.35;;;1.85;;
69847;SDS011;57143;55.940;37.496;2022-12-07T07:47:34;11.02;;;2.88;;
69847;SDS011;57143;55.940;37.496;2022-12-07T07:50:01;11.07;;;2.85;;
69847;SDS011;57143;55.940;37.496;2022-12-07T07:52:30;13.57;;;3.17;;
69847;SDS011;57143;55.940;37.496;2022-12-07T07:54:58;10.23;;;2.60;;
69847;SDS011;57143;55.940;37.496;2022-12-07T07:57:25;9.48;;;2.47;;
69847;SDS011;57143;55.940;37.496;2022-12-07T07:59:52;10.02;;;2.50;;
69847;SDS011;57143;55.940;37.496;2022-12-07T08:02:20;7.18;;;2.05;;
69847;SDS011;57143;55.940;37.496;2022-12-07T08:04:48;11.00;;;3.00;;
69847;SDS011;57143;55.940;37.496;2022-12-07T08:07:15;7.78;;;2.20;;
69847;SDS011;57143;55.940;37.496;2022-12-07T08:09:44;13.00;;;2.75;;
69847;SDS011;57143;55.940;37.496;2022-12-07T08:12:11;10.45;;;2.97;;
69847;SDS011;57143;55.940;37.496;2022-12-07T08:14:38;8.85;;;2.72;;
69847;SDS011;57143;55.940;37.496;2022-12-07T08:17:06;8.33;;;2.33;;
69847;SDS011;57143;55.940;37.496;2022-12-07T08:19:33;9.13;;;2.80;;
69847;SDS011;57143;55.940;37.496;2022-12-07T08:22:00;10.57;;;2.60;;
69847;SDS011;57143;55.940;37.496;2022-12-07T08:24:28;12.52;;;3.85;;
69847;SDS011;57143;55.940;37.496;2022-12-07T08:26:57;11.02;;;3.10;;
69847;SDS011;57143;55.940;37.496;2022-12-07T08:29:24;9.57;;;2.33;;
69847;SDS011;57143;55.940;37.496;2022-12-07T08:31:51;7.30;;;2.55;;
69847;SDS011;57143;55.940;37.496;2022-12-07T08:34:19;6.85;;;2.33;;
69847;SDS011;57143;55.940;37.496;2022-12-07T08:36:46;13.93;;;2.83;;
69847;SDS011;57143;55.940;37.496;2022-12-07T08:39:13;8.32;;;2.20;;
69847;SDS011;57143;55.940;37.496;2022-12-07T08:41:40;9.63;;;3.00;;
69847;SDS011;57143;55.940;37.496;2022-12-07T08:44:09;9.13;;;2.67;;
69847;SDS011;57143;55.940;37.496;2022-12-07T08:46:36;10.65;;;3.13;;
69847;SDS011;57143;55.940;37.496;2022-12-07T08:49:09;9.57;;;1.88;;
69847;SDS011;57143;55.940;37.496;2022-12-07T08:51:39;10.68;;;2.13;;
69847;SDS011;57143;55.940;37.496;2022-12-07T08:54:09;5.60;;;1.50;;
69847;SDS011;57143;55.940;37.496;2022-12-07T08:56:39;7.43;;;3.00;;
69847;SDS011;57143;55.940;37.496;2022-12-07T08:59:07;7.43;;;2.70;;
69847;SDS011;57143;55.940;37.496;2022-12-07T09:01:37;7.93;;;2.58;;
69847;SDS011;57143;55.940;37.496;2022-12-07T09:04:04;10.82;;;3.60;;
69847;SDS011;57143;55.940;37.496;2022-12-07T09:06:31;12.47;;;3.10;;
69847;SDS011;57143;55.940;37.496;2022-12-07T09:08:59;10.15;;;2.55;;
69847;SDS011;57143;55.940;37.496;2022-12-07T09:11:28;10.20;;;3.25;;
69847;SDS011;57143;55.940;37.496;2022-12-07T09:13:55;7.43;;;2.42;;
69847;SDS011;57143;55.940;37.496;2022-12-07T09:16:24;9.35;;;2.28;;
69847;SDS011;57143;55.940;37.496;2022-12-07T09:18:51;7.60;;;2.03;;
69847;SDS011;57143;55.940;37.496;2022-12-07T09:21:18;8.95;;;2.55;;
69847;SDS011;57143;55.940;37.496;2022-12-07T09:23:45;7.40;;;1.63;;
69847;SDS011;57143;55.940;37.496;2022-12-07T09:26:12;9.55;;;2.80;;
69847;SDS011;57143;55.940;37.496;2022-12-07T09:28:40;10.60;;;3.33;;
69847;SDS011;57143;55.940;37.496;2022-12-07T09:31:07;10.73;;;2.33;;
69847;SDS011;57143;55.940;37.496;2022-12-07T09:33:35;7.78;;;2.10;;
69847;SDS011;57143;55.940;37.496;2022-12-07T09:36:03;7.35;;;2.03;;
69847;SDS011;57143;55.940;37.496;2022-12-07T09:38:30;10.07;;;2.97;;
69847;SDS011;57143;55.940;37.496;2022-12-07T09:40:57;6.95;;;2.75;;
69847;SDS011;57143;55.940;37.496;2022-12-07T09:43:32;8.90;;;2.23;;
69847;SDS011;57143;55.940;37.496;2022-12-07T09:46:01;9.10;;;2.67;;
69847;SDS011;57143;55.940;37.496;2022-12-07T09:48:30;5.63;;;1.73;;
69847;SDS011;57143;55.940;37.496;2022-12-07T09:51:02;7.63;;;1.63;;
69847;SDS011;57143;55.940;37.496;2022-12-07T09:53:40;6.40;;;2.13;;
69847;SDS011;57143;55.940;37.496;2022-12-07T09:56:09;6.37;;;2.30;;
69847;SDS011;57143;55.940;37.496;2022-12-07T09:58:39;7.28;;;2.17;;
69847;SDS011;57143;55.940;37.496;2022-12-07T10:01:09;9.20;;;3.22;;
69847;SDS011;57143;55.940;37.496;2022-12-07T10:03:39;8.80;;;2.60;;
69847;SDS011;57143;55.940;37.496;2022-12-07T10:06:13;6.22;;;1.30;;
69847;SDS011;57143;55.940;37.496;2022-12-07T10:08:40;6.73;;;2.03;;
69847;SDS011;57143;55.940;37.496;2022-12-07T10:11:08;9.73;;;3.35;;
69847;SDS011;57143;55.940;37.496;2022-12-07T10:13:37;10.57;;;3.28;;
69847;SDS011;57143;55.940;37.496;2022-12-07T10:16:06;9.32;;;2.92;;
69847;SDS011;57143;55.940;37.496;2022-12-07T10:18:53;6.88;;;2.45;;
69847;SDS011;57143;55.940;37.496;2022-12-07T10:21:22;9.03;;;2.70;;
69847;SDS011;57143;55.940;37.496;2022-12-07T10:24:00;6.25;;;2.45;;
69847;SDS011;57143;55.940;37.496;2022-12-07T10:26:29;7.03;;;1.65;;
69847;SDS011;57143;55.940;37.496;2022-12-07T10:28:59;5.90;;;1.67;;
69847;SDS011;57143;55.940;37.496;2022-12-07T10:31:28;8.07;;;2.45;;
69847;SDS011;57143;55.940;37.496;2022-12-07T10:33:55;14.60;;;2.70;;
69847;SDS011;57143;55.940;37.496;2022-12-07T10:36:26;17.08;;;3.60;;
69847;SDS011;57143;55.940;37.496;2022-12-07T10:39:01;7.40;;;2.05;;
69847;SDS011;57143;55.940;37.496;2022-12-07T10:41:30;7.65;;;2.22;;
69847;SDS011;57143;55.940;37.496;2022-12-07T10:43:57;10.85;;;3.35;;
69847;SDS011;57143;55.940;37.496;2022-12-07T10:49:28;7.65;;;1.98;;
69847;SDS011;57143;55.940;37.496;2022-12-07T10:52:23;6.53;;;1.30;;
69847;SDS011;57143;55.940;37.496;2022-12-07T10:55:03;7.68;;;1.98;;
69847;SDS011;57143;55.940;37.496;2022-12-07T10:57:42;14.05;;;2.35;;
69847;SDS011;57143;55.940;37.496;2022-12-07T11:00:23;9.70;;;2.43;;
69847;SDS011;57143;55.940;37.496;2022-12-07T11:06:03;6.97;;;2.03;;
69847;SDS011;57143;55.940;37.496;2022-12-07T11:08:47;7.95;;;2.35;;
69847;SDS011;57143;55.940;37.496;2022-12-07T11:11:26;7.22;;;2.33;;
69847;SDS011;57143;55.940;37.496;2022-12-07T11:14:01;10.17;;;2.17;;
69847;SDS011;57143;55.940;37.496;2022-12-07T11:16:42;7.78;;;2.25;;
69847;SDS011;57143;55.940;37.496;2022-12-07T11:19:30;8.73;;;2.55;;
69847;SDS011;57143;55.940;37.496;2022-12-07T11:22:08;6.65;;;2.10;;
69847;SDS011;57143;55.940;37.496;2022-12-07T11:24:43;25.75;;;5.32;;
69847;SDS011;57143;55.940;37.496;2022-12-07T11:27:18;10.77;;;2.30;;
69847;SDS011;57143;55.940;37.496;2022-12-07T11:29:59;6.55;;;1.90;;
69847;SDS011;57143;55.940;37.496;2022-12-07T11:32:40;10.75;;;2.50;;
69847;SDS011;57143;55.940;37.496;2022-12-07T11:35:18;13.25;;;2.60;;
69847;SDS011;57143;55.940;37.496;2022-12-07T11:37:51;9.27;;;3.22;;
69847;SDS011;57143;55.940;37.496;2022-12-07T11:40:26;8.43;;;2.50;;
69847;SDS011;57143;55.940;37.496;2022-12-07T11:43:01;6.47;;;2.22;;
69847;SDS011;57143;55.940;37.496;2022-12-07T11:45:32;9.38;;;1.85;;
69847;SDS011;57143;55.940;37.496;2022-12-07T11:48:01;8.68;;;2.10;;
69847;SDS011;57143;55.940;37.496;2022-12-07T11:50:33;11.77;;;2.15;;
69847;SDS011;57143;55.940;37.496;2022-12-07T11:53:04;10.43;;;2.20;;
69847;SDS011;57143;55.940;37.496;2022-12-07T11:55:41;10.65;;;3.10;;
69847;SDS011;57143;55.940;37.496;2022-12-07T11:58:18;6.55;;;2.17;;
69847;SDS011;57143;55.940;37.496;2022-12-07T12:01:00;9.20;;;1.88;;
69847;SDS011;57143;55.940;37.496;2022-12-07T12:03:35;6.90;;;1.73;;
69847;SDS011;57143;55.940;37.496;2022-12-07T12:06:06;10.07;;;2.23;;
69847;SDS011;57143;55.940;37.496;2022-12-07T12:08:34;5.97;;;1.63;;
69847;SDS011;57143;55.940;37.496;2022-12-07T12:11:08;8.88;;;2.80;;
69847;SDS011;57143;55.940;37.496;2022-12-07T12:14:00;5.72;;;2.00;;
69847;SDS011;57143;55.940;37.496;2022-12-07T12:17:01;7.53;;;2.05;;
69847;SDS011;57143;55.940;37.496;2022-12-07T12:19:44;9.63;;;3.07;;
69847;SDS011;57143;55.940;37.496;2022-12-07T12:22:32;9.77;;;1.95;;
69847;SDS011;57143;55.940;37.496;2022-12-07T12:25:04;6.03;;;1.42;;
69847;SDS011;57143;55.940;37.496;2022-12-07T12:27:36;11.40;;;3.05;;
69847;SDS011;57143;55.940;37.496;2022-12-07T12:30:06;9.07;;;2.88;;
69847;SDS011;57143;55.940;37.496;2022-12-07T12:32:51;13.43;;;3.07;;
69847;SDS011;57143;55.940;37.496;2022-12-07T12:35:27;11.68;;;3.42;;
69847;SDS011;57143;55.940;37.496;2022-12-07T12:40:53;9.32;;;2.33;;
69847;SDS011;57143;55.940;37.496;2022-12-07T12:49:30;11.45;;;2.63;;
69847;SDS011;57143;55.940;37.496;2022-12-07T12:55:12;10.50;;;3.30;;
69847;SDS011;57143;55.940;37.496;2022-12-07T12:57:44;8.07;;;2.30;;
69847;SDS011;57143;55.940;37.496;2022-12-07T13:00:17;8.90;;;2.73;;
69847;SDS011;57143;55.940;37.496;2022-12-07T13:02:50;7.38;;;2.25;;
69847;SDS011;57143;55.940;37.496;2022-12-07T13:05:20;7.65;;;2.25;;
69847;SDS011;57143;55.940;37.496;2022-12-07T13:07:56;38.70;;;4.95;;
69847;SDS011;57143;55.940;37.496;2022-12-07T13:10:36;7.88;;;2.30;;
69847;SDS011;57143;55.940;37.496;2022-12-07T13:22:39;10.20;;;2.90;;
69847;SDS011;57143;55.940;37.496;2022-12-07T13:25:11;10.10;;;3.28;;
69847;SDS011;57143;55.940;37.496;2022-12-07T13:27:47;9.87;;;2.90;;
69847;SDS011;57143;55.940;37.496;2022-12-07T13:30:19;7.20;;;2.47;;
69847;SDS011;57143;55.940;37.496;2022-12-07T13:32:51;9.23;;;2.15;;
69847;SDS011;57143;55.940;37.496;2022-12-07T13:35:27;9.93;;;3.10;;
69847;SDS011;57143;55.940;37.496;2022-12-07T13:37:57;7.32;;;1.95;;
69847;SDS011;57143;55.940;37.496;2022-12-07T13:40:24;11.73;;;2.80;;
69847;SDS011;57143;55.940;37.496;2022-12-07T13:42:57;12.05;;;3.15;;
69847;SDS011;57143;55.940;37.496;2022-12-07T13:45:26;10.27;;;2.47;;
69847;SDS011;57143;55.940;37.496;2022-12-07T13:48:14;13.48;;;4.10;;
69847;SDS011;57143;55.940;37.496;2022-12-07T13:50:52;11.00;;;2.35;;
69847;SDS011;57143;55.940;37.496;2022-12-07T13:53:22;15.97;;;2.50;;
69847;SDS011;57143;55.940;37.496;2022-12-07T13:55:49;7.97;;;3.03;;
69847;SDS011;57143;55.940;37.496;2022-12-07T13:58:17;9.35;;;2.70;;
69847;SDS011;57143;55.940;37.496;2022-12-07T14:00:44;9.05;;;3.08;;
69847;SDS011;57143;55.940;37.496;2022-12-07T14:03:23;15.32;;;3.00;;
69847;SDS011;57143;55.940;37.496;2022-12-07T14:06:11;8.20;;;2.53;;
69847;SDS011;57143;55.940;37.496;2022-12-07T14:08:43;9.10;;;2.67;;
69847;SDS011;57143;55.940;37.496;2022-12-07T14:11:13;10.32;;;3.47;;
69847;SDS011;57143;55.940;37.496;2022-12-07T14:13:51;8.43;;;3.20;;
69847;SDS011;57143;55.940;37.496;2022-12-07T14:16:27;11.30;;;3.50;;
69847;SDS011;57143;55.940;37.496;2022-12-07T14:18:57;9.77;;;2.90;;
69847;SDS011;57143;55.940;37.496;2022-12-07T14:21:26;11.13;;;3.03;;
69847;SDS011;57143;55.940;37.496;2022-12-07T14:24:14;11.73;;;3.33;;
69847;SDS011;57143;55.940;37.496;2022-12-07T14:26:44;8.13;;;2.08;;
69847;SDS011;57143;55.940;37.496;2022-12-07T14:32:17;14.13;;;3.67;;
69847;SDS011;57143;55.940;37.496;2022-12-07T14:34:58;10.77;;;3.65;;
69847;SDS011;57143;55.940;37.496;2022-12-07T14:37:27;11.15;;;4.22;;
69847;SDS011;57143;55.940;37.496;2022-12-07T14:39:56;7.28;;;2.38;;
69847;SDS011;57143;55.940;37.496;2022-12-07T14:42:24;19.30;;;2.28;;
69847;SDS011;57143;55.940;37.496;2022-12-07T14:44:54;10.27;;;2.93;;
69847;SDS011;57143;55.940;37.496;2022-12-07T14:47:21;16.35;;;4.40;;
69847;SDS011;57143;55.940;37.496;2022-12-07T14:49:49;11.88;;;2.67;;
69847;SDS011;57143;55.940;37.496;2022-12-07T14:52:16;11.13;;;3.08;;
69847;SDS011;57143;55.940;37.496;2022-12-07T14:54:46;11.63;;;4.03;;
69847;SDS011;57143;55.940;37.496;2022-12-07T14:57:14;8.93;;;2.87;;
69847;SDS011;57143;55.940;37.496;2022-12-07T14:59:41;7.82;;;1.92;;
69847;SDS011;57143;55.940;37.496;2022-12-07T15:02:09;10.75;;;2.90;;
69847;SDS011;57143;55.940;37.496;2022-12-07T15:04:39;8.93;;;2.28;;
69847;SDS011;57143;55.940;37.496;2022-12-07T15:07:09;10.23;;;3.20;;
69847;SDS011;57143;55.940;37.496;2022-12-07T15:09:41;7.87;;;2.40;;
69847;SDS011;57143;55.940;37.496;2022-12-07T15:12:08;10.00;;;3.15;;
69847;SDS011;57143;55.940;37.496;2022-12-07T15:14:37;8.48;;;2.00;;
69847;SDS011;57143;55.940;37.496;2022-12-07T15:17:04;10.90;;;3.53;;
69847;SDS011;57143;55.940;37.496;2022-12-07T15:19:31;8.60;;;2.78;;
69847;SDS011;57143;55.940;37.496;2022-12-07T15:21:58;8.00;;;2.30;;
69847;SDS011;57143;55.940;37.496;2022-12-07T15:24:26;9.38;;;2.92;;
69847;SDS011;57143;55.940;37.496;2022-12-07T15:26:53;7.53;;;2.08;;
69847;SDS011;57143;55.940;37.496;2022-12-07T15:29:20;9.60;;;3.05;;
69847;SDS011;57143;55.940;37.496;2022-12-07T15:31:49;8.60;;;2.42;;